aviador You're here:

KMNI Decoded Metar

MANNING in SC, USA
Report Time2017-08-16 14:55:00
UTC Time2017-08-16 15:07:53
Flight Rules vfr VFR
Wind020° at 11 kt
W.Decomp.*RWY 02: 10.9 kt HW 1.1 kt RCW
W.Rank020° ranks 5
Current wind is above 020° avg. (5.5)
Visibility9999 m
Phenomena:N/A
Clouds:N/A
Expected CloudBase > 2,000 ft AGL from Temp-Dew spread
CeilingNone
Temp31°C (ISA +16)
Dew Point26°C (75% RH)
Heat Index39.2°C
QNH1017 hPa
Density Alt2,264 ft
Elevation105 ft
Report Wrong Elevation
Raw Report
METAR KMNI 161455Z AUTO 02011KT 330V030 10SM CLR 31/26 A3002 RMK AO2=

Extra information for KMNI:More info

Metar Taf Metar & Taf Last 4 Metars F.Rules Stats Wind Profile Meteogram Temp Stats Airport Information Weather charts Add Link Nearby VenuesMetar ALERT Operation Metar Decoded Social comments

AIRNAV info for KMNI